sensor_id;sensor_type;location;lat;lon;timestamp;temperature;humidity
35541;DHT22;21650;48.840;9.162;2022-07-15T00:00:09;19.80;73.90
35541;DHT22;21650;48.840;9.162;2022-07-15T00:02:36;19.70;74.00
35541;DHT22;21650;48.840;9.162;2022-07-15T00:05:02;19.70;75.50
35541;DHT22;21650;48.840;9.162;2022-07-15T00:07:27;19.70;74.80
35541;DHT22;21650;48.840;9.162;2022-07-15T00:09:53;19.70;74.40
35541;DHT22;21650;48.840;9.162;2022-07-15T00:12:37;19.70;74.40
35541;DHT22;21650;48.840;9.162;2022-07-15T00:15:03;19.60;74.50
35541;DHT22;21650;48.840;9.162;2022-07-15T00:17:29;19.60;74.90
35541;DHT22;21650;48.840;9.162;2022-07-15T00:19:55;19.60;75.90
35541;DHT22;21650;48.840;9.162;2022-07-15T00:22:20;19.70;74.50
35541;DHT22;21650;48.840;9.162;2022-07-15T00:24:46;19.60;74.70
35541;DHT22;21650;48.840;9.162;2022-07-15T00:27:12;19.60;75.10
35541;DHT22;21650;48.840;9.162;2022-07-15T00:29:38;19.50;74.90
35541;DHT22;21650;48.840;9.162;2022-07-15T00:32:04;19.50;74.80
35541;DHT22;21650;48.840;9.162;2022-07-15T00:34:30;19.50;75.10
35541;DHT22;21650;48.840;9.162;2022-07-15T00:36:55;19.50;75.40
35541;DHT22;21650;48.840;9.162;2022-07-15T00:39:21;19.40;75.20
35541;DHT22;21650;48.840;9.162;2022-07-15T00:41:47;19.40;75.50
35541;DHT22;21650;48.840;9.162;2022-07-15T00:44:13;19.50;76.30
35541;DHT22;21650;48.840;9.162;2022-07-15T00:46:38;19.70;76.40
35541;DHT22;21650;48.840;9.162;2022-07-15T00:49:07;19.80;76.10
35541;DHT22;21650;48.840;9.162;2022-07-15T00:51:41;19.80;75.90
35541;DHT22;21650;48.840;9.162;2022-07-15T00:54:12;19.80;75.80
35541;DHT22;21650;48.840;9.162;2022-07-15T00:56:50;19.90;76.30
35541;DHT22;21650;48.840;9.162;2022-07-15T00:59:17;19.80;75.20
35541;DHT22;21650;48.840;9.162;2022-07-15T01:01:48;19.80;75.80
35541;DHT22;21650;48.840;9.162;2022-07-15T01:04:14;19.60;75.70
35541;DHT22;21650;48.840;9.162;2022-07-15T01:06:41;19.50;75.00
35541;DHT22;21650;48.840;9.162;2022-07-15T01:09:06;19.50;76.50
35541;DHT22;21650;48.840;9.162;2022-07-15T01:11:32;19.60;75.90
35541;DHT22;21650;48.840;9.162;2022-07-15T01:13:59;19.50;76.00
35541;DHT22;21650;48.840;9.162;2022-07-15T01:16:25;19.60;76.70
35541;DHT22;21650;48.840;9.162;2022-07-15T01:18:52;19.60;76.70
35541;DHT22;21650;48.840;9.162;2022-07-15T01:21:17;19.40;75.00
35541;DHT22;21650;48.840;9.162;2022-07-15T01:23:43;19.40;76.90
35541;DHT22;21650;48.840;9.162;2022-07-15T01:26:10;19.50;78.50
35541;DHT22;21650;48.840;9.162;2022-07-15T01:28:37;19.60;77.50
35541;DHT22;21650;48.840;9.162;2022-07-15T01:31:03;19.50;77.10
35541;DHT22;21650;48.840;9.162;2022-07-15T01:33:29;19.50;77.50
35541;DHT22;21650;48.840;9.162;2022-07-15T01:35:57;19.40;78.80
35541;DHT22;21650;48.840;9.162;2022-07-15T01:38:23;19.40;78.30
35541;DHT22;21650;48.840;9.162;2022-07-15T01:40:49;19.30;78.00
35541;DHT22;21650;48.840;9.162;2022-07-15T01:43:14;19.30;78.70
35541;DHT22;21650;48.840;9.162;2022-07-15T01:45:44;19.30;78.80
35541;DHT22;21650;48.840;9.162;2022-07-15T01:48:11;19.30;78.60
35541;DHT22;21650;48.840;9.162;2022-07-15T01:50:58;19.30;78.50
35541;DHT22;21650;48.840;9.162;2022-07-15T01:53:25;19.30;78.50
35541;DHT22;21650;48.840;9.162;2022-07-15T01:55:51;19.20;78.30
35541;DHT22;21650;48.840;9.162;2022-07-15T01:58:17;19.10;78.80
35541;DHT22;21650;48.840;9.162;2022-07-15T02:00:43;19.10;78.80
35541;DHT22;21650;48.840;9.162;2022-07-15T02:03:09;18.90;79.10
35541;DHT22;21650;48.840;9.162;2022-07-15T02:05:35;18.80;79.30
35541;DHT22;21650;48.840;9.162;2022-07-15T02:08:01;18.80;80.30
35541;DHT22;21650;48.840;9.162;2022-07-15T02:10:27;18.70;80.00
35541;DHT22;21650;48.840;9.162;2022-07-15T02:13:13;18.80;80.70
35541;DHT22;21650;48.840;9.162;2022-07-15T02:15:40;18.90;80.90
35541;DHT22;21650;48.840;9.162;2022-07-15T02:18:06;18.80;80.60
35541;DHT22;21650;48.840;9.162;2022-07-15T02:20:33;18.90;80.90
35541;DHT22;21650;48.840;9.162;2022-07-15T02:22:59;18.90;81.40
35541;DHT22;21650;48.840;9.162;2022-07-15T02:25:26;18.80;81.30
35541;DHT22;21650;48.840;9.162;2022-07-15T02:27:54;18.80;82.00
35541;DHT22;21650;48.840;9.162;2022-07-15T02:30:25;18.80;81.30
35541;DHT22;21650;48.840;9.162;2022-07-15T02:32:51;18.70;81.30
35541;DHT22;21650;48.840;9.162;2022-07-15T02:35:17;18.60;81.30
35541;DHT22;21650;48.840;9.162;2022-07-15T02:37:44;18.50;82.00
35541;DHT22;21650;48.840;9.162;2022-07-15T02:40:10;18.50;81.90
35541;DHT22;21650;48.840;9.162;2022-07-15T02:42:36;18.60;82.10
35541;DHT22;21650;48.840;9.162;2022-07-15T02:45:02;18.50;82.50
35541;DHT22;21650;48.840;9.162;2022-07-15T02:47:28;18.50;82.60
35541;DHT22;21650;48.840;9.162;2022-07-15T02:49:53;18.50;82.50
35541;DHT22;21650;48.840;9.162;2022-07-15T02:52:19;18.30;82.70
35541;DHT22;21650;48.840;9.162;2022-07-15T02:54:44;18.30;82.80
35541;DHT22;21650;48.840;9.162;2022-07-15T02:57:10;18.30;84.00
35541;DHT22;21650;48.840;9.162;2022-07-15T02:59:35;18.30;82.60
35541;DHT22;21650;48.840;9.162;2022-07-15T03:02:01;18.20;84.40
35541;DHT22;21650;48.840;9.162;2022-07-15T03:04:27;18.20;83.90
35541;DHT22;21650;48.840;9.162;2022-07-15T03:06:52;18.10;83.00
35541;DHT22;21650;48.840;9.162;2022-07-15T03:09:18;17.90;84.20
35541;DHT22;21650;48.840;9.162;2022-07-15T03:11:44;18.00;85.70
35541;DHT22;21650;48.840;9.162;2022-07-15T03:14:10;18.00;84.90
35541;DHT22;21650;48.840;9.162;2022-07-15T03:16:35;18.00;85.60
35541;DHT22;21650;48.840;9.162;2022-07-15T03:19:01;18.00;85.90
35541;DHT22;21650;48.840;9.162;2022-07-15T03:21:27;18.00;85.90
35541;DHT22;21650;48.840;9.162;2022-07-15T03:23:52;18.00;85.70
35541;DHT22;21650;48.840;9.162;2022-07-15T03:26:19;17.90;86.00
35541;DHT22;21650;48.840;9.162;2022-07-15T03:28:46;17.90;86.40
35541;DHT22;21650;48.840;9.162;2022-07-15T03:31:12;17.90;86.50
35541;DHT22;21650;48.840;9.162;2022-07-15T03:33:37;17.80;86.70
35541;DHT22;21650;48.840;9.162;2022-07-15T03:36:03;17.80;87.10
35541;DHT22;21650;48.840;9.162;2022-07-15T03:38:30;17.80;87.80
35541;DHT22;21650;48.840;9.162;2022-07-15T03:40:56;17.80;86.80
35541;DHT22;21650;48.840;9.162;2022-07-15T03:43:21;17.80;88.80
35541;DHT22;21650;48.840;9.162;2022-07-15T03:45:49;17.70;89.10
35541;DHT22;21650;48.840;9.162;2022-07-15T03:48:15;17.70;89.00
35541;DHT22;21650;48.840;9.162;2022-07-15T03:50:40;17.80;90.00
35541;DHT22;21650;48.840;9.162;2022-07-15T03:53:06;17.80;89.80
35541;DHT22;21650;48.840;9.162;2022-07-15T03:55:32;17.80;90.00
35541;DHT22;21650;48.840;9.162;2022-07-15T03:57:57;17.80;89.80
35541;DHT22;21650;48.840;9.162;2022-07-15T04:00:23;17.80;90.10
35541;DHT22;21650;48.840;9.162;2022-07-15T04:02:49;17.80;90.00
35541;DHT22;21650;48.840;9.162;2022-07-15T04:05:14;17.80;90.10
35541;DHT22;21650;48.840;9.162;2022-07-15T04:07:40;17.90;90.10
35541;DHT22;21650;48.840;9.162;2022-07-15T04:10:06;17.80;90.10
35541;DHT22;21650;48.840;9.162;2022-07-15T04:12:32;17.70;90.70
35541;DHT22;21650;48.840;9.162;2022-07-15T04:14:58;17.70;90.90
35541;DHT22;21650;48.840;9.162;2022-07-15T04:17:23;17.70;90.90
35541;DHT22;21650;48.840;9.162;2022-07-15T04:19:49;17.70;90.80
35541;DHT22;21650;48.840;9.162;2022-07-15T04:22:14;17.70;91.80
35541;DHT22;21650;48.840;9.162;2022-07-15T04:24:40;17.80;92.00
35541;DHT22;21650;48.840;9.162;2022-07-15T04:27:05;17.80;91.90
35541;DHT22;21650;48.840;9.162;2022-07-15T04:29:31;17.80;91.90
35541;DHT22;21650;48.840;9.162;2022-07-15T04:31:57;17.90;92.30
35541;DHT22;21650;48.840;9.162;2022-07-15T04:34:22;17.90;92.60
35541;DHT22;21650;48.840;9.162;2022-07-15T04:36:48;17.90;92.20
35541;DHT22;21650;48.840;9.162;2022-07-15T04:39:13;17.90;92.50
35541;DHT22;21650;48.840;9.162;2022-07-15T04:41:39;18.10;93.20
35541;DHT22;21650;48.840;9.162;2022-07-15T04:44:04;18.10;92.80
35541;DHT22;21650;48.840;9.162;2022-07-15T04:46:30;18.20;93.40
35541;DHT22;21650;48.840;9.162;2022-07-15T04:48:56;18.20;93.20
35541;DHT22;21650;48.840;9.162;2022-07-15T04:51:40;18.20;94.60
35541;DHT22;21650;48.840;9.162;2022-07-15T04:54:05;18.30;94.40
35541;DHT22;21650;48.840;9.162;2022-07-15T04:56:31;18.30;94.40
35541;DHT22;21650;48.840;9.162;2022-07-15T04:58:56;18.10;93.10
35541;DHT22;21650;48.840;9.162;2022-07-15T05:01:22;18.10;94.60
35541;DHT22;21650;48.840;9.162;2022-07-15T05:03:48;18.10;93.60
35541;DHT22;21650;48.840;9.162;2022-07-15T05:06:13;18.10;92.00
35541;DHT22;21650;48.840;9.162;2022-07-15T05:08:39;18.10;92.40
35541;DHT22;21650;48.840;9.162;2022-07-15T05:11:04;18.20;93.90
35541;DHT22;21650;48.840;9.162;2022-07-15T05:13:30;18.30;92.30
35541;DHT22;21650;48.840;9.162;2022-07-15T05:15:57;18.20;92.90
35541;DHT22;21650;48.840;9.162;2022-07-15T05:18:22;18.40;93.40
35541;DHT22;21650;48.840;9.162;2022-07-15T05:20:48;18.30;90.90
35541;DHT22;21650;48.840;9.162;2022-07-15T05:23:15;18.40;92.00
35541;DHT22;21650;48.840;9.162;2022-07-15T05:25:42;18.70;92.40
35541;DHT22;21650;48.840;9.162;2022-07-15T05:28:07;18.90;91.10
35541;DHT22;21650;48.840;9.162;2022-07-15T05:30:33;18.90;91.20
35541;DHT22;21650;48.840;9.162;2022-07-15T05:33:02;19.00;91.40
35541;DHT22;21650;48.840;9.162;2022-07-15T05:35:28;19.10;90.40
35541;DHT22;21650;48.840;9.162;2022-07-15T05:37:53;18.80;87.70
35541;DHT22;21650;48.840;9.162;2022-07-15T05:40:19;18.90;90.20
35541;DHT22;21650;48.840;9.162;2022-07-15T05:42:45;19.10;89.60
35541;DHT22;21650;48.840;9.162;2022-07-15T05:45:12;19.30;87.60
35541;DHT22;21650;48.840;9.162;2022-07-15T05:47:38;19.40;88.30
35541;DHT22;21650;48.840;9.162;2022-07-15T05:50:04;19.40;88.20
35541;DHT22;21650;48.840;9.162;2022-07-15T05:52:31;19.60;89.40
35541;DHT22;21650;48.840;9.162;2022-07-15T05:54:56;19.50;87.50
35541;DHT22;21650;48.840;9.162;2022-07-15T05:57:22;19.60;89.40
35541;DHT22;21650;48.840;9.162;2022-07-15T05:59:48;19.70;88.80
35541;DHT22;21650;48.840;9.162;2022-07-15T06:02:13;19.80;86.60
35541;DHT22;21650;48.840;9.162;2022-07-15T06:04:39;19.80;88.70
35541;DHT22;21650;48.840;9.162;2022-07-15T06:07:05;19.90;86.70
35541;DHT22;21650;48.840;9.162;2022-07-15T06:09:31;20.10;86.30
35541;DHT22;21650;48.840;9.162;2022-07-15T06:11:57;20.10;85.60
35541;DHT22;21650;48.840;9.162;2022-07-15T06:14:24;20.20;86.10
35541;DHT22;21650;48.840;9.162;2022-07-15T06:16:49;20.00;84.50
35541;DHT22;21650;48.840;9.162;2022-07-15T06:19:15;19.70;85.40
35541;DHT22;21650;48.840;9.162;2022-07-15T06:21:41;19.90;87.70
35541;DHT22;21650;48.840;9.162;2022-07-15T06:24:06;19.90;87.70
35541;DHT22;21650;48.840;9.162;2022-07-15T06:26:32;20.10;88.30
35541;DHT22;21650;48.840;9.162;2022-07-15T06:28:58;20.20;86.80
35541;DHT22;21650;48.840;9.162;2022-07-15T06:31:23;20.30;82.70
35541;DHT22;21650;48.840;9.162;2022-07-15T06:33:49;20.30;85.10
35541;DHT22;21650;48.840;9.162;2022-07-15T06:36:15;20.40;83.60
35541;DHT22;21650;48.840;9.162;2022-07-15T06:38:40;20.30;78.80
35541;DHT22;21650;48.840;9.162;2022-07-15T06:41:06;20.00;80.40
35541;DHT22;21650;48.840;9.162;2022-07-15T06:43:31;19.90;79.20
35541;DHT22;21650;48.840;9.162;2022-07-15T06:45:57;20.00;76.70
35541;DHT22;21650;48.840;9.162;2022-07-15T06:48:23;20.20;78.10
35541;DHT22;21650;48.840;9.162;2022-07-15T06:50:49;20.30;76.50
35541;DHT22;21650;48.840;9.162;2022-07-15T06:53:15;20.50;76.60
35541;DHT22;21650;48.840;9.162;2022-07-15T06:55:40;20.50;74.10
35541;DHT22;21650;48.840;9.162;2022-07-15T06:58:06;20.50;74.80
35541;DHT22;21650;48.840;9.162;2022-07-15T07:00:32;20.60;77.40
35541;DHT22;21650;48.840;9.162;2022-07-15T07:02:58;20.70;75.40
35541;DHT22;21650;48.840;9.162;2022-07-15T07:05:24;20.80;76.20
35541;DHT22;21650;48.840;9.162;2022-07-15T07:07:50;21.00;76.70
35541;DHT22;21650;48.840;9.162;2022-07-15T07:10:16;21.20;76.10
35541;DHT22;21650;48.840;9.162;2022-07-15T07:12:41;21.30;74.80
35541;DHT22;21650;48.840;9.162;2022-07-15T07:15:07;21.20;74.70
35541;DHT22;21650;48.840;9.162;2022-07-15T07:17:34;21.30;71.70
35541;DHT22;21650;48.840;9.162;2022-07-15T07:20:00;21.40;72.60
35541;DHT22;21650;48.840;9.162;2022-07-15T07:22:26;21.50;71.80
35541;DHT22;21650;48.840;9.162;2022-07-15T07:24:52;21.40;69.80
35541;DHT22;21650;48.840;9.162;2022-07-15T07:27:19;21.20;69.90
35541;DHT22;21650;48.840;9.162;2022-07-15T07:29:44;21.20;67.10
35541;DHT22;21650;48.840;9.162;2022-07-15T07:32:10;21.20;69.10
35541;DHT22;21650;48.840;9.162;2022-07-15T07:34:35;21.30;66.90
35541;DHT22;21650;48.840;9.162;2022-07-15T07:37:01;21.20;66.00
35541;DHT22;21650;48.840;9.162;2022-07-15T07:39:27;21.20;66.40
35541;DHT22;21650;48.840;9.162;2022-07-15T07:41:52;21.50;67.30
35541;DHT22;21650;48.840;9.162;2022-07-15T07:44:20;21.60;68.30
35541;DHT22;21650;48.840;9.162;2022-07-15T07:46:46;21.80;66.50
35541;DHT22;21650;48.840;9.162;2022-07-15T07:49:12;21.90;67.10
35541;DHT22;21650;48.840;9.162;2022-07-15T07:51:39;21.70;64.80
35541;DHT22;21650;48.840;9.162;2022-07-15T07:54:06;21.60;66.40
35541;DHT22;21650;48.840;9.162;2022-07-15T07:56:32;21.90;66.50
35541;DHT22;21650;48.840;9.162;2022-07-15T07:58:58;21.70;64.50
35541;DHT22;21650;48.840;9.162;2022-07-15T08:01:24;21.90;69.00
35541;DHT22;21650;48.840;9.162;2022-07-15T08:03:49;21.90;65.40
35541;DHT22;21650;48.840;9.162;2022-07-15T08:06:16;22.00;65.20
35541;DHT22;21650;48.840;9.162;2022-07-15T08:08:42;21.90;64.60
35541;DHT22;21650;48.840;9.162;2022-07-15T08:11:08;22.10;68.40
35541;DHT22;21650;48.840;9.162;2022-07-15T08:13:33;22.20;66.70
35541;DHT22;21650;48.840;9.162;2022-07-15T08:15:59;22.30;67.20
35541;DHT22;21650;48.840;9.162;2022-07-15T08:18:24;22.10;64.90
35541;DHT22;21650;48.840;9.162;2022-07-15T08:20:51;22.20;66.10
35541;DHT22;21650;48.840;9.162;2022-07-15T08:23:17;22.20;67.00
35541;DHT22;21650;48.840;9.162;2022-07-15T08:25:47;22.40;65.00
35541;DHT22;21650;48.840;9.162;2022-07-15T08:28:13;22.60;67.50
35541;DHT22;21650;48.840;9.162;2022-07-15T08:30:38;23.00;64.80
35541;DHT22;21650;48.840;9.162;2022-07-15T08:33:04;23.30;63.70
35541;DHT22;21650;48.840;9.162;2022-07-15T08:35:30;23.80;65.80
35541;DHT22;21650;48.840;9.162;2022-07-15T08:37:56;24.20;67.50
35541;DHT22;21650;48.840;9.162;2022-07-15T08:40:22;24.60;64.40
35541;DHT22;21650;48.840;9.162;2022-07-15T08:42:50;24.30;59.50
35541;DHT22;21650;48.840;9.162;2022-07-15T08:45:16;24.80;68.30
35541;DHT22;21650;48.840;9.162;2022-07-15T08:47:44;24.50;60.60
35541;DHT22;21650;48.840;9.162;2022-07-15T08:50:15;24.70;60.30
35541;DHT22;21650;48.840;9.162;2022-07-15T08:52:43;24.60;62.50
35541;DHT22;21650;48.840;9.162;2022-07-15T08:55:09;25.00;60.20
35541;DHT22;21650;48.840;9.162;2022-07-15T08:57:35;25.00;60.80
35541;DHT22;21650;48.840;9.162;2022-07-15T09:00:02;25.10;62.00
35541;DHT22;21650;48.840;9.162;2022-07-15T09:02:28;25.00;59.00
35541;DHT22;21650;48.840;9.162;2022-07-15T09:05:31;25.10;59.80
35541;DHT22;21650;48.840;9.162;2022-07-15T09:08:02;24.80;58.70
35541;DHT22;21650;48.840;9.162;2022-07-15T09:10:56;24.30;58.00
35541;DHT22;21650;48.840;9.162;2022-07-15T09:13:33;23.90;59.20
35541;DHT22;21650;48.840;9.162;2022-07-15T09:16:11;24.50;62.00
35541;DHT22;21650;48.840;9.162;2022-07-15T09:18:41;25.20;62.10
35541;DHT22;21650;48.840;9.162;2022-07-15T09:21:20;25.50;62.70
35541;DHT22;21650;48.840;9.162;2022-07-15T09:23:46;26.20;59.70
35541;DHT22;21650;48.840;9.162;2022-07-15T09:26:28;26.50;59.60
35541;DHT22;21650;48.840;9.162;2022-07-15T09:28:56;25.80;58.00
35541;DHT22;21650;48.840;9.162;2022-07-15T09:31:37;25.80;61.10
35541;DHT22;21650;48.840;9.162;2022-07-15T09:34:23;25.30;57.60
35541;DHT22;21650;48.840;9.162;2022-07-15T09:36:53;25.60;58.70
35541;DHT22;21650;48.840;9.162;2022-07-15T09:39:20;25.80;58.90
35541;DHT22;21650;48.840;9.162;2022-07-15T09:41:47;25.80;56.10
35541;DHT22;21650;48.840;9.162;2022-07-15T09:44:22;26.40;62.40
35541;DHT22;21650;48.840;9.162;2022-07-15T09:46:58;27.10;59.30
35541;DHT22;21650;48.840;9.162;2022-07-15T09:51:59;26.20;57.90
35541;DHT22;21650;48.840;9.162;2022-07-15T09:56:59;25.90;58.40
35541;DHT22;21650;48.840;9.162;2022-07-15T09:59:25;26.40;64.30
35541;DHT22;21650;48.840;9.162;2022-07-15T10:01:50;26.10;62.60
35541;DHT22;21650;48.840;9.162;2022-07-15T10:04:21;26.20;56.70
35541;DHT22;21650;48.840;9.162;2022-07-15T10:06:49;26.10;56.70
35541;DHT22;21650;48.840;9.162;2022-07-15T10:09:22;25.80;57.70
35541;DHT22;21650;48.840;9.162;2022-07-15T10:11:50;26.00;56.90
35541;DHT22;21650;48.840;9.162;2022-07-15T10:23:09;25.30;56.20
35541;DHT22;21650;48.840;9.162;2022-07-15T10:31:34;25.30;56.90
35541;DHT22;21650;48.840;9.162;2022-07-15T10:37:03;26.00;57.20
35541;DHT22;21650;48.840;9.162;2022-07-15T10:39:55;25.80;55.10
35541;DHT22;21650;48.840;9.162;2022-07-15T10:42:23;26.10;58.30
35541;DHT22;21650;48.840;9.162;2022-07-15T10:47:24;25.30;58.80
35541;DHT22;21650;48.840;9.162;2022-07-15T10:49:50;25.70;56.20
35541;DHT22;21650;48.840;9.162;2022-07-15T10:52:30;25.70;58.00
35541;DHT22;21650;48.840;9.162;2022-07-15T11:00:32;25.80;58.50
35541;DHT22;21650;48.840;9.162;2022-07-15T11:05:27;26.40;56.50
35541;DHT22;21650;48.840;9.162;2022-07-15T11:07:53;26.30;56.80
35541;DHT22;21650;48.840;9.162;2022-07-15T11:10:20;25.90;57.70
35541;DHT22;21650;48.840;9.162;2022-07-15T11:15:17;26.10;58.70
35541;DHT22;21650;48.840;9.162;2022-07-15T11:17:48;26.70;56.80
35541;DHT22;21650;48.840;9.162;2022-07-15T11:20:21;27.10;57.30
35541;DHT22;21650;48.840;9.162;2022-07-15T11:22:50;26.90;55.80
35541;DHT22;21650;48.840;9.162;2022-07-15T11:25:21;26.70;55.60
35541;DHT22;21650;48.840;9.162;2022-07-15T11:30:32;25.30;56.90
35541;DHT22;21650;48.840;9.162;2022-07-15T11:33:00;25.90;56.50
35541;DHT22;21650;48.840;9.162;2022-07-15T11:35:27;26.10;57.00
35541;DHT22;21650;48.840;9.162;2022-07-15T11:37:57;26.70;56.40
35541;DHT22;21650;48.840;9.162;2022-07-15T11:40:24;26.70;55.80
35541;DHT22;21650;48.840;9.162;2022-07-15T11:43:14;26.10;56.40
35541;DHT22;21650;48.840;9.162;2022-07-15T11:45:59;26.70;57.50
35541;DHT22;21650;48.840;9.162;2022-07-15T11:48:25;27.10;55.80
35541;DHT22;21650;48.840;9.162;2022-07-15T11:50:53;26.80;56.00
35541;DHT22;21650;48.840;9.162;2022-07-15T11:53:19;26.70;54.70
35541;DHT22;21650;48.840;9.162;2022-07-15T12:01:08;26.60;55.10
35541;DHT22;21650;48.840;9.162;2022-07-15T12:03:43;26.60;56.50
35541;DHT22;21650;48.840;9.162;2022-07-15T12:06:15;27.00;57.20
35541;DHT22;21650;48.840;9.162;2022-07-15T12:08:48;27.20;54.90
35541;DHT22;21650;48.840;9.162;2022-07-15T12:11:23;27.00;55.30
35541;DHT22;21650;48.840;9.162;2022-07-15T12:13:54;26.90;55.80
35541;DHT22;21650;48.840;9.162;2022-07-15T12:16:30;26.80;56.10
35541;DHT22;21650;48.840;9.162;2022-07-15T12:18:59;27.20;55.10
35541;DHT22;21650;48.840;9.162;2022-07-15T12:21:26;27.60;55.80
35541;DHT22;21650;48.840;9.162;2022-07-15T12:24:06;27.60;53.80
35541;DHT22;21650;48.840;9.162;2022-07-15T12:26:38;27.00;56.50
35541;DHT22;21650;48.840;9.162;2022-07-15T12:29:09;26.90;55.10
35541;DHT22;21650;48.840;9.162;2022-07-15T12:31:36;27.40;55.60
35541;DHT22;21650;48.840;9.162;2022-07-15T12:34:03;27.90;55.70
35541;DHT22;21650;48.840;9.162;2022-07-15T12:36:32;27.90;53.90
35541;DHT22;21650;48.840;9.162;2022-07-15T12:39:07;27.80;56.30
35541;DHT22;21650;48.840;9.162;2022-07-15T12:41:35;26.90;56.10
35541;DHT22;21650;48.840;9.162;2022-07-15T12:44:02;27.20;55.90
35541;DHT22;21650;48.840;9.162;2022-07-15T12:46:48;26.10;55.50
35541;DHT22;21650;48.840;9.162;2022-07-15T12:49:40;26.10;58.10
35541;DHT22;21650;48.840;9.162;2022-07-15T12:52:34;26.40;56.00
35541;DHT22;21650;48.840;9.162;2022-07-15T12:55:13;26.40;57.20
35541;DHT22;21650;48.840;9.162;2022-07-15T12:57:39;26.50;55.10
35541;DHT22;21650;48.840;9.162;2022-07-15T13:00:21;26.50;55.80
35541;DHT22;21650;48.840;9.162;2022-07-15T13:02:56;26.60;56.50
35541;DHT22;21650;48.840;9.162;2022-07-15T13:05:23;27.30;56.00
35541;DHT22;21650;48.840;9.162;2022-07-15T13:07:49;27.10;53.70
35541;DHT22;21650;48.840;9.162;2022-07-15T13:10:14;27.50;55.20
35541;DHT22;21650;48.840;9.162;2022-07-15T13:12:40;27.80;55.80
35541;DHT22;21650;48.840;9.162;2022-07-15T13:15:06;27.80;54.70
35541;DHT22;21650;48.840;9.162;2022-07-15T13:17:32;27.20;53.90
35541;DHT22;21650;48.840;9.162;2022-07-15T13:19:57;27.70;53.80
35541;DHT22;21650;48.840;9.162;2022-07-15T13:22:23;27.70;54.40
35541;DHT22;21650;48.840;9.162;2022-07-15T13:24:49;27.70;54.80
35541;DHT22;21650;48.840;9.162;2022-07-15T13:27:15;28.10;53.50
35541;DHT22;21650;48.840;9.162;2022-07-15T13:29:41;28.20;53.50
35541;DHT22;21650;48.840;9.162;2022-07-15T13:32:07;28.80;53.70
35541;DHT22;21650;48.840;9.162;2022-07-15T13:34:32;28.90;53.30
35541;DHT22;21650;48.840;9.162;2022-07-15T13:36:58;28.40;52.70
35541;DHT22;21650;48.840;9.162;2022-07-15T13:39:23;26.90;53.60
35541;DHT22;21650;48.840;9.162;2022-07-15T13:41:49;26.90;54.50
35541;DHT22;21650;48.840;9.162;2022-07-15T13:44:15;27.00;55.10
35541;DHT22;21650;48.840;9.162;2022-07-15T13:46:40;26.80;55.10
35541;DHT22;21650;48.840;9.162;2022-07-15T13:49:07;26.40;55.10
35541;DHT22;21650;48.840;9.162;2022-07-15T13:51:32;26.30;55.20
35541;DHT22;21650;48.840;9.162;2022-07-15T13:53:58;26.40;55.10
35541;DHT22;21650;48.840;9.162;2022-07-15T13:56:24;26.40;55.80
35541;DHT22;21650;48.840;9.162;2022-07-15T13:58:50;26.60;54.80
35541;DHT22;21650;48.840;9.162;2022-07-15T14:01:16;26.80;55.50
35541;DHT22;21650;48.840;9.162;2022-07-15T14:03:42;26.50;55.10
35541;DHT22;21650;48.840;9.162;2022-07-15T14:06:07;26.80;54.80
35541;DHT22;21650;48.840;9.162;2022-07-15T14:08:34;26.80;55.50
35541;DHT22;21650;48.840;9.162;2022-07-15T14:11:00;26.90;55.10
35541;DHT22;21650;48.840;9.162;2022-07-15T14:13:26;26.30;55.10
35541;DHT22;21650;48.840;9.162;2022-07-15T14:15:52;26.20;55.60
35541;DHT22;21650;48.840;9.162;2022-07-15T14:18:17;25.80;56.60
35541;DHT22;21650;48.840;9.162;2022-07-15T14:20:43;26.10;56.70
35541;DHT22;21650;48.840;9.162;2022-07-15T14:23:12;26.10;56.20
35541;DHT22;21650;48.840;9.162;2022-07-15T14:25:38;26.40;56.50
35541;DHT22;21650;48.840;9.162;2022-07-15T14:28:04;27.00;56.00
35541;DHT22;21650;48.840;9.162;2022-07-15T14:30:29;26.90;55.00
35541;DHT22;21650;48.840;9.162;2022-07-15T14:32:55;26.70;55.30
35541;DHT22;21650;48.840;9.162;2022-07-15T14:35:21;26.30;54.60
35541;DHT22;21650;48.840;9.162;2022-07-15T14:37:47;26.40;55.20
35541;DHT22;21650;48.840;9.162;2022-07-15T14:40:13;26.40;56.80
35541;DHT22;21650;48.840;9.162;2022-07-15T14:42:39;26.20;56.20
35541;DHT22;21650;48.840;9.162;2022-07-15T14:45:06;26.70;55.70
35541;DHT22;21650;48.840;9.162;2022-07-15T14:47:32;26.90;55.20
35541;DHT22;21650;48.840;9.162;2022-07-15T14:49:57;27.20;53.60
35541;DHT22;21650;48.840;9.162;2022-07-15T14:52:23;27.50;55.20
35541;DHT22;21650;48.840;9.162;2022-07-15T14:54:49;27.90;53.40
35541;DHT22;21650;48.840;9.162;2022-07-15T14:57:15;27.70;52.80
35541;DHT22;21650;48.840;9.162;2022-07-15T14:59:42;27.90;54.00
35541;DHT22;21650;48.840;9.162;2022-07-15T15:02:08;27.70;53.50
35541;DHT22;21650;48.840;9.162;2022-07-15T15:04:34;28.10;52.90
35541;DHT22;21650;48.840;9.162;2022-07-15T15:07:00;27.60;53.20
35541;DHT22;21650;48.840;9.162;2022-07-15T15:09:27;27.60;53.50
35541;DHT22;21650;48.840;9.162;2022-07-15T15:11:53;26.90;53.70
35541;DHT22;21650;48.840;9.162;2022-07-15T15:14:18;27.10;53.80
35541;DHT22;21650;48.840;9.162;2022-07-15T15:16:44;27.50;53.60
35541;DHT22;21650;48.840;9.162;2022-07-15T15:19:10;27.60;52.90
35541;DHT22;21650;48.840;9.162;2022-07-15T15:21:35;27.20;53.20
35541;DHT22;21650;48.840;9.162;2022-07-15T15:24:02;27.10;53.30
35541;DHT22;21650;48.840;9.162;2022-07-15T15:26:28;27.50;53.30
35541;DHT22;21650;48.840;9.162;2022-07-15T15:28:57;27.70;52.30
35541;DHT22;21650;48.840;9.162;2022-07-15T15:31:23;27.20;52.40
35541;DHT22;21650;48.840;9.162;2022-07-15T15:33:51;27.40;52.30
35541;DHT22;21650;48.840;9.162;2022-07-15T15:36:17;27.70;52.40
35541;DHT22;21650;48.840;9.162;2022-07-15T15:38:43;27.70;52.80
35541;DHT22;21650;48.840;9.162;2022-07-15T15:41:08;27.50;51.80
35541;DHT22;21650;48.840;9.162;2022-07-15T15:43:34;27.50;53.10
35541;DHT22;21650;48.840;9.162;2022-07-15T15:46:00;27.60;52.50
35541;DHT22;21650;48.840;9.162;2022-07-15T15:48:26;27.30;51.80
35541;DHT22;21650;48.840;9.162;2022-07-15T15:50:52;27.60;51.80
35541;DHT22;21650;48.840;9.162;2022-07-15T15:53:18;27.30;52.40
35541;DHT22;21650;48.840;9.162;2022-07-15T15:55:43;27.30;51.50
35541;DHT22;21650;48.840;9.162;2022-07-15T15:58:09;27.50;51.40
35541;DHT22;21650;48.840;9.162;2022-07-15T16:00:35;27.20;51.00
35541;DHT22;21650;48.840;9.162;2022-07-15T16:03:01;26.80;51.60
35541;DHT22;21650;48.840;9.162;2022-07-15T16:05:27;26.80;51.50
35541;DHT22;21650;48.840;9.162;2022-07-15T16:07:53;26.90;51.60
35541;DHT22;21650;48.840;9.162;2022-07-15T16:10:19;27.00;51.60
35541;DHT22;21650;48.840;9.162;2022-07-15T16:12:44;26.70;52.30
35541;DHT22;21650;48.840;9.162;2022-07-15T16:15:10;27.40;52.00